createdAt,value
2023-04-27T00:01:50.694Z,99906.34
2023-04-27T00:04:18.498Z,99902.78
2023-04-27T00:06:45.486Z,99895.19
2023-04-27T00:09:14.108Z,99893.38
2023-04-27T00:11:41.425Z,99894.91
2023-04-27T00:14:08.277Z,99893.50
2023-04-27T00:16:35.825Z,99901.47
2023-04-27T00:19:03.019Z,99896.97
2023-04-27T00:21:29.911Z,99897.91
2023-04-27T00:23:57.250Z,99896.28
2023-04-27T00:26:25.539Z,99895.47
2023-04-27T00:28:53.506Z,99891.84
2023-04-27T00:31:20.585Z,99889.38
2023-04-27T00:33:49.821Z,99886.09
2023-04-27T00:36:16.792Z,99883.22
2023-04-27T00:38:43.829Z,99886.38
2023-04-27T00:41:10.849Z,99885.16
2023-04-27T00:43:45.075Z,99876.88
2023-04-27T00:46:14.035Z,99878.75
2023-04-27T00:48:41.966Z,99880.34
2023-04-27T00:51:10.106Z,99878.22
2023-04-27T00:53:37.974Z,99871.78
2023-04-27T00:56:06.457Z,99880.63
2023-04-27T00:58:33.453Z,99865.69
2023-04-27T01:01:01.941Z,99870.03
2023-04-27T01:03:31.131Z,99877.94
2023-04-27T01:05:58.658Z,99874.19
2023-04-27T01:08:26.066Z,99876.88
2023-04-27T01:10:53.126Z,99886.44
2023-04-27T01:13:20.278Z,99885.41
2023-04-27T01:15:47.170Z,99881.06
2023-04-27T01:18:15.630Z,99890.28
2023-04-27T01:20:42.788Z,99890.22
2023-04-27T01:23:16.666Z,99896.81
2023-04-27T01:25:44.668Z,99888.75
2023-04-27T01:28:11.651Z,99892.28
2023-04-27T01:30:38.621Z,99884.41
2023-04-27T01:33:05.612Z,99880.69
2023-04-27T01:35:32.659Z,99880.50
2023-04-27T01:38:01.010Z,99887.34
2023-04-27T01:40:29.555Z,99892.31
2023-04-27T01:42:56.450Z,99889.63
2023-04-27T01:45:23.555Z,99891.72
2023-04-27T01:47:51.546Z,99888.56
2023-04-27T01:50:20.959Z,99889.13
2023-04-27T01:52:47.987Z,99889.81
2023-04-27T01:55:14.964Z,99885.66
2023-04-27T01:57:44.671Z,99892.06
2023-04-27T02:00:14.389Z,99893.81
2023-04-27T02:02:56.892Z,99896.09
2023-04-27T02:05:27.101Z,99901.66
2023-04-27T02:07:54.526Z,99895.38
2023-04-27T02:10:23.110Z,99900.09
2023-04-27T02:12:56.399Z,99904.81
2023-04-27T02:15:23.648Z,99897.78
2023-04-27T02:17:50.809Z,99894.63
2023-04-27T02:20:18.064Z,99911.31
2023-04-27T02:22:45.132Z,99908.75
2023-04-27T02:25:13.136Z,99912.63
2023-04-27T02:27:41.161Z,99914.31
2023-04-27T02:30:12.061Z,99923.66
2023-04-27T02:32:39.660Z,99922.44
2023-04-27T02:35:08.026Z,99913.19
2023-04-27T02:37:35.121Z,99917.91
2023-04-27T02:40:02.678Z,99920.97
2023-04-27T02:42:32.804Z,99910.22
2023-04-27T02:45:00.126Z,99916.69
2023-04-27T02:47:28.529Z,99916.31
2023-04-27T02:49:56.301Z,99921.31
2023-04-27T02:52:23.365Z,99925.50
2023-04-27T02:54:50.209Z,99927.25
2023-04-27T02:57:17.241Z,99923.66
2023-04-27T02:59:44.307Z,99934.88
2023-04-27T03:02:11.585Z,99931.16
2023-04-27T03:04:39.945Z,99937.09
2023-04-27T03:08:27.376Z,99929.84
2023-04-27T03:11:09.794Z,99933.94
2023-04-27T03:13:37.724Z,99920.59
2023-04-27T03:21:11.776Z,99934.59
2023-04-27T03:23:40.027Z,99936.91
2023-04-27T03:26:07.975Z,99928.94
2023-04-27T03:28:35.673Z,99931.69
2023-04-27T03:31:05.903Z,99927.53
2023-04-27T03:33:33.001Z,99920.50
2023-04-27T03:36:00.744Z,99922.53
2023-04-27T03:38:29.334Z,99919.13
2023-04-27T03:40:57.184Z,99928.19
2023-04-27T03:43:25.916Z,99926.25
2023-04-27T03:45:53.352Z,99925.31
2023-04-27T03:48:21.015Z,99922.06
2023-04-27T03:50:48.342Z,99934.94
2023-04-27T03:53:16.016Z,99934.41
2023-04-27T03:55:45.757Z,99930.50
2023-04-27T03:58:16.853Z,99930.69
2023-04-27T04:01:07.134Z,99927.19
2023-04-27T04:03:34.249Z,99935.41
2023-04-27T04:06:01.341Z,99930.69
2023-04-27T04:08:28.730Z,99932.56
2023-04-27T04:10:57.836Z,99937.56
2023-04-27T04:13:24.668Z,99948.84
2023-04-27T04:16:03.033Z,99939.41
2023-04-27T04:18:30.449Z,99943.56
2023-04-27T04:20:57.582Z,99933.38
2023-04-27T04:23:24.906Z,99935.88
2023-04-27T04:25:52.936Z,99934.88
2023-04-27T04:28:21.954Z,99939.03
2023-04-27T04:30:49.977Z,99946.72
2023-04-27T04:33:18.207Z,99942.00
2023-04-27T04:35:45.473Z,99932.25
2023-04-27T04:38:12.947Z,99940.31
2023-04-27T04:40:44.548Z,99939.50
2023-04-27T04:43:12.976Z,99937.63
2023-04-27T04:45:41.573Z,99951.53
2023-04-27T04:48:08.541Z,99945.78
2023-04-27T04:50:35.700Z,99937.97
2023-04-27T04:53:03.755Z,99942.78
2023-04-27T04:58:12.583Z,99945.94
2023-04-27T05:00:40.909Z,99945.56
2023-04-27T05:03:08.583Z,99940.00
2023-04-27T05:05:35.578Z,99943.78
2023-04-27T05:08:02.781Z,99951.28
2023-04-27T05:10:29.652Z,99938.28
2023-04-27T05:12:56.645Z,99939.56
2023-04-27T05:15:23.792Z,99941.06
2023-04-27T05:17:52.192Z,99941.69
2023-04-27T05:20:19.338Z,99941.50
2023-04-27T05:22:46.180Z,99950.88
2023-04-27T05:25:13.362Z,99945.13
2023-04-27T05:27:40.233Z,99946.19
2023-04-27T05:30:09.101Z,99947.84
2023-04-27T05:32:36.482Z,99949.97
2023-04-27T05:35:05.499Z,99948.38
2023-04-27T05:37:32.780Z,99958.75
2023-04-27T05:40:00.344Z,99962.09
2023-04-27T05:42:27.367Z,99962.75
2023-04-27T05:44:55.248Z,99973.75
2023-04-27T05:47:22.636Z,99978.59
2023-04-27T05:49:51.035Z,99972.19
2023-04-27T05:52:20.190Z,99977.81
2023-04-27T05:54:47.562Z,99982.91
2023-04-27T05:57:15.548Z,99984.03
2023-04-27T05:59:42.670Z,99987.03
2023-04-27T06:02:09.707Z,99984.59
2023-04-27T06:04:36.730Z,99978.63
2023-04-27T06:07:08.311Z,99987.53
2023-04-27T06:09:37.196Z,99987.00
2023-04-27T06:12:04.442Z,99978.28
2023-04-27T06:14:32.405Z,99981.03
2023-04-27T06:16:59.356Z,99979.06
2023-04-27T06:19:26.220Z,99975.09
2023-04-27T06:21:54.504Z,99984.75
2023-04-27T06:24:22.077Z,99987.84
2023-04-27T06:26:50.536Z,99983.59
2023-04-27T06:29:17.566Z,99983.22
2023-04-27T06:31:44.552Z,99983.47
2023-04-27T06:34:11.435Z,99983.09
2023-04-27T06:36:38.351Z,99981.91
2023-04-27T06:39:05.170Z,99980.69
2023-04-27T06:41:32.641Z,99987.16
2023-04-27T06:44:00.859Z,99991.94
2023-04-27T06:46:27.737Z,99982.78
2023-04-27T06:48:54.821Z,99992.56
2023-04-27T06:51:22.664Z,99992.59
2023-04-27T06:53:50.083Z,99991.34
2023-04-27T06:56:17.148Z,100002.78
2023-04-27T06:58:44.178Z,100006.53
2023-04-27T07:01:12.692Z,100007.75
2023-04-27T07:03:39.883Z,100005.88
2023-04-27T07:06:07.219Z,99997.56
2023-04-27T07:08:34.279Z,100004.34
2023-04-27T07:11:01.459Z,99995.69
2023-04-27T07:13:29.512Z,99999.44
2023-04-27T07:15:58.527Z,100002.78
2023-04-27T07:18:27.307Z,100008.41
2023-04-27T07:20:54.606Z,100003.59
2023-04-27T07:23:21.681Z,100000.63
2023-04-27T07:25:48.960Z,100005.19
2023-04-27T07:28:16.154Z,100001.38
2023-04-27T07:30:43.343Z,99992.13
2023-04-27T07:33:10.442Z,99993.69
2023-04-27T07:35:39.281Z,99987.00
2023-04-27T07:38:06.856Z,99981.47
2023-04-27T07:40:34.998Z,99983.06
2023-04-27T07:43:02.082Z,99979.34
2023-04-27T07:45:29.009Z,99979.50
2023-04-27T07:47:57.641Z,99981.16
2023-04-27T07:50:27.881Z,99984.13
2023-04-27T07:52:56.760Z,99983.88
2023-04-27T07:55:24.992Z,99992.91
2023-04-27T07:57:52.887Z,99979.91
2023-04-27T08:00:20.387Z,99985.34
2023-04-27T08:02:47.649Z,99982.06
2023-04-27T08:05:15.299Z,99980.97
2023-04-27T08:07:44.781Z,99975.53
2023-04-27T08:10:15.342Z,99975.97
2023-04-27T08:12:42.603Z,99978.31
2023-04-27T08:15:11.927Z,99968.19
2023-04-27T08:17:38.997Z,99958.94
2023-04-27T08:20:08.930Z,99966.03
2023-04-27T08:22:35.780Z,99964.78
2023-04-27T08:25:04.390Z,99955.63
2023-04-27T08:27:32.776Z,99951.50
2023-04-27T08:29:59.774Z,99951.84
2023-04-27T08:32:26.700Z,99948.06
2023-04-27T08:36:27.288Z,99951.59
2023-04-27T08:38:54.963Z,99945.94
2023-04-27T08:41:23.104Z,99938.56
2023-04-27T08:43:52.027Z,99949.28
2023-04-27T08:46:19.462Z,99951.72
2023-04-27T08:48:46.988Z,99947.84
2023-04-27T08:51:15.997Z,99946.44
2023-04-27T08:53:49.341Z,99936.72
2023-04-27T08:56:16.886Z,99941.75
2023-04-27T08:58:44.369Z,99941.94
2023-04-27T09:01:12.661Z,99942.81
2023-04-27T09:03:39.858Z,99940.22
2023-04-27T09:06:08.004Z,99928.78
2023-04-27T09:08:49.244Z,99934.38
2023-04-27T09:11:28.418Z,99936.34
2023-04-27T09:13:55.702Z,99927.44
2023-04-27T09:16:27.618Z,99935.94
2023-04-27T09:18:56.561Z,99946.47
2023-04-27T09:21:24.376Z,99944.84
2023-04-27T09:23:52.604Z,99946.50
2023-04-27T09:26:21.482Z,99942.09
2023-04-27T09:28:51.128Z,99942.19
2023-04-27T09:31:18.968Z,99946.56
2023-04-27T09:33:55.316Z,99941.16
2023-04-27T09:36:24.005Z,99955.13
2023-04-27T09:38:52.702Z,99946.06
2023-04-27T09:41:20.201Z,99944.13
2023-04-27T09:43:47.489Z,99940.75
2023-04-27T09:46:15.109Z,99942.13
2023-04-27T09:48:42.472Z,99942.22
2023-04-27T09:51:10.961Z,99931.88
2023-04-27T09:53:46.671Z,99928.06
2023-04-27T09:56:33.938Z,99921.31
2023-04-27T09:59:46.622Z,99912.75
2023-04-27T10:02:25.446Z,99912.81
2023-04-27T10:05:30.131Z,99911.69
2023-04-27T10:07:58.816Z,99913.50
2023-04-27T10:10:26.525Z,99914.38
2023-04-27T10:12:59.088Z,99923.25
2023-04-27T10:15:28.135Z,99918.47
2023-04-27T10:17:56.008Z,99922.25
2023-04-27T10:20:30.801Z,99918.56
2023-04-27T10:23:00.187Z,99915.25
2023-04-27T10:25:29.110Z,99912.25
2023-04-27T10:27:59.349Z,99918.59
2023-04-27T10:30:32.305Z,99912.91
2023-04-27T10:33:05.972Z,99920.22
2023-04-27T10:35:34.882Z,99914.97
2023-04-27T10:38:15.131Z,99929.56
2023-04-27T10:40:45.110Z,99912.00
2023-04-27T10:43:14.560Z,99914.38
2023-04-27T10:45:43.597Z,99904.28
2023-04-27T10:48:13.575Z,99915.47
2023-04-27T10:50:41.509Z,99904.84
2023-04-27T10:53:10.080Z,99902.53
2023-04-27T10:55:37.562Z,99908.13
2023-04-27T10:58:04.687Z,99897.25
2023-04-27T11:00:36.256Z,99898.72
2023-04-27T11:03:16.348Z,99895.06
2023-04-27T11:05:45.277Z,99900.47
2023-04-27T11:08:15.853Z,99891.69
2023-04-27T11:10:46.344Z,99895.66
2023-04-27T11:13:16.361Z,99897.44
2023-04-27T11:15:48.957Z,99899.84
2023-04-27T11:18:19.035Z,99895.25
2023-04-27T11:20:50.707Z,99887.28
2023-04-27T11:23:27.281Z,99877.34
2023-04-27T11:25:54.890Z,99871.09
2023-04-27T11:28:22.563Z,99878.56
2023-04-27T11:30:56.766Z,99879.88
2023-04-27T11:33:24.377Z,99881.94
2023-04-27T11:35:51.399Z,99879.94
2023-04-27T11:38:20.416Z,99881.50
2023-04-27T11:41:00.387Z,99876.41
2023-04-27T11:43:28.038Z,99880.00
2023-04-27T11:45:56.380Z,99877.09
2023-04-27T11:48:24.209Z,99882.81
2023-04-27T11:50:51.796Z,99891.63
2023-04-27T11:53:30.070Z,99888.00
2023-04-27T11:56:02.238Z,99887.13
2023-04-27T11:58:29.378Z,99873.97
2023-04-27T12:00:58.232Z,99880.66
2023-04-27T12:03:25.344Z,99867.31
2023-04-27T12:05:54.939Z,99870.25
2023-04-27T12:08:21.881Z,99867.53
2023-04-27T12:10:49.156Z,99857.56
2023-04-27T12:13:17.528Z,99863.00
2023-04-27T12:15:44.583Z,99857.91
2023-04-27T12:18:13.906Z,99859.88
2023-04-27T12:20:41.001Z,99863.13
2023-04-27T12:23:08.206Z,99851.34
2023-04-27T12:25:35.186Z,99852.38
2023-04-27T12:28:04.753Z,99850.44
2023-04-27T12:30:33.166Z,99846.13
2023-04-27T12:33:00.121Z,99847.53
2023-04-27T12:35:27.109Z,99837.78
2023-04-27T12:37:55.672Z,99835.66
2023-04-27T12:40:22.690Z,99837.31
2023-04-27T12:42:49.878Z,99835.13
2023-04-27T12:45:17.208Z,99826.34
2023-04-27T12:48:01.210Z,99829.63
2023-04-27T12:50:30.859Z,99825.81
2023-04-27T12:52:58.910Z,99824.44
2023-04-27T12:57:58.474Z,99820.84
2023-04-27T13:00:26.404Z,99821.41
2023-04-27T13:02:55.318Z,99818.13
2023-04-27T13:05:22.744Z,99819.41
2023-04-27T13:07:49.669Z,99817.75
2023-04-27T13:10:17.011Z,99823.56
2023-04-27T13:12:44.548Z,99813.66
2023-04-27T13:15:11.794Z,99815.88
2023-04-27T13:17:38.792Z,99816.66
2023-04-27T13:20:09.297Z,99825.06
2023-04-27T13:22:36.329Z,99820.00
2023-04-27T13:25:03.632Z,99823.88
2023-04-27T13:27:30.637Z,99818.44
2023-04-27T13:29:57.604Z,99821.78
2023-04-27T13:32:24.587Z,99812.66
2023-04-27T13:34:51.514Z,99801.56
2023-04-27T13:37:19.784Z,99800.06
2023-04-27T13:39:47.454Z,99808.59
2023-04-27T13:42:14.788Z,99807.09
2023-04-27T13:44:41.693Z,99796.75
2023-04-27T13:47:09.468Z,99795.34
2023-04-27T13:49:36.939Z,99789.22
2023-04-27T13:52:05.227Z,99789.91
2023-04-27T13:54:33.476Z,99785.75
2023-04-27T13:57:00.334Z,99791.34
2023-04-27T13:59:31.169Z,99789.50
2023-04-27T14:01:58.132Z,99785.00
2023-04-27T14:04:25.452Z,99794.44
2023-04-27T14:06:52.447Z,99793.53
2023-04-27T14:09:19.410Z,99790.28
2023-04-27T14:11:56.526Z,99785.44
2023-04-27T14:14:26.847Z,99784.28
2023-04-27T14:16:54.116Z,99787.53
2023-04-27T14:19:21.390Z,99798.84
2023-04-27T14:21:50.192Z,99790.78
2023-04-27T14:24:17.488Z,99796.56
2023-04-27T14:26:44.792Z,99799.50
2023-04-27T14:29:13.481Z,99796.69
2023-04-27T14:31:41.093Z,99799.50
2023-04-27T14:34:08.612Z,99790.66
2023-04-27T14:36:36.528Z,99793.50
2023-04-27T14:39:04.516Z,99793.19
2023-04-27T14:41:31.636Z,99788.72
2023-04-27T14:43:58.663Z,99789.22
2023-04-27T14:46:26.938Z,99787.13
2023-04-27T14:48:54.406Z,99796.81
2023-04-27T14:51:22.210Z,99786.19
2023-04-27T14:53:50.156Z,99794.44
2023-04-27T14:56:20.613Z,99793.41
2023-04-27T14:58:48.333Z,99792.97
2023-04-27T15:01:15.372Z,99796.31
2023-04-27T15:03:43.913Z,99790.91
2023-04-27T15:06:11.983Z,99794.00
2023-04-27T15:08:39.010Z,99786.34
2023-04-27T15:11:07.174Z,99797.28
2023-04-27T15:13:34.357Z,99794.56
2023-04-27T15:16:01.358Z,99792.28
2023-04-27T15:18:28.370Z,99793.97
2023-04-27T15:20:58.390Z,99792.03
2023-04-27T15:23:30.653Z,99799.09
2023-04-27T15:25:58.341Z,99787.84
2023-04-27T15:28:26.406Z,99789.22
2023-04-27T15:30:53.388Z,99784.75
2023-04-27T15:33:20.335Z,99780.38
2023-04-27T15:35:47.510Z,99780.59
2023-04-27T15:38:16.822Z,99783.91
2023-04-27T15:40:44.012Z,99783.06
2023-04-27T15:43:11.223Z,99773.22
2023-04-27T15:45:38.620Z,99782.81
2023-04-27T15:48:07.281Z,99774.06
2023-04-27T15:50:34.090Z,99766.69
2023-04-27T15:53:01.931Z,99766.72
2023-04-27T15:55:30.342Z,99763.41
2023-04-27T15:57:57.326Z,99762.84
2023-04-27T16:00:24.352Z,99765.06
2023-04-27T16:02:51.350Z,99750.78
2023-04-27T16:05:20.137Z,99749.44
2023-04-27T16:07:47.202Z,99738.72
2023-04-27T16:10:15.657Z,99748.28
2023-04-27T16:12:44.165Z,99746.91
2023-04-27T16:15:11.929Z,99740.59
2023-04-27T16:17:39.385Z,99734.25
2023-04-27T16:20:08.449Z,99730.97
2023-04-27T16:22:37.656Z,99723.91
2023-04-27T16:25:06.128Z,99728.28
2023-04-27T16:27:34.161Z,99727.31
2023-04-27T16:30:02.667Z,99724.63
2023-04-27T16:32:29.701Z,99723.25
2023-04-27T16:34:56.776Z,99721.63
2023-04-27T16:37:24.246Z,99721.09
2023-04-27T16:39:51.273Z,99722.19
2023-04-27T16:42:18.428Z,99713.41
2023-04-27T16:44:45.786Z,99716.63
2023-04-27T16:47:14.325Z,99707.91
2023-04-27T16:49:42.086Z,99698.38
2023-04-27T16:52:09.110Z,99707.34
2023-04-27T16:54:36.042Z,99708.16
2023-04-27T16:57:03.376Z,99704.88
2023-04-27T16:59:30.755Z,99708.44
2023-04-27T17:02:01.715Z,99712.84
2023-04-27T17:04:37.704Z,99707.34
2023-04-27T17:07:04.628Z,99713.38
2023-04-27T17:09:31.578Z,99720.47
2023-04-27T17:11:59.360Z,99710.53
2023-04-27T17:14:26.224Z,99709.63
2023-04-27T17:16:53.092Z,99716.50
2023-04-27T17:19:20.160Z,99717.53
2023-04-27T17:21:48.621Z,99708.75
2023-04-27T17:24:15.486Z,99706.28
2023-04-27T17:26:42.344Z,99709.03
2023-04-27T17:29:09.640Z,99712.84
2023-04-27T17:31:36.687Z,99708.19
2023-04-27T17:34:03.650Z,99707.06
2023-04-27T17:36:30.792Z,99719.31
2023-04-27T17:38:59.293Z,99715.22
2023-04-27T17:41:26.588Z,99717.63
2023-04-27T17:43:53.660Z,99717.88
2023-04-27T17:46:20.677Z,99703.09
2023-04-27T17:48:47.649Z,99697.06
2023-04-27T17:51:14.544Z,99704.47
2023-04-27T17:53:41.481Z,99707.72
2023-04-27T17:56:09.815Z,99700.00
2023-04-27T17:58:36.764Z,99704.88
2023-04-27T18:01:03.679Z,99703.19
2023-04-27T18:03:31.468Z,99704.25
2023-04-27T18:05:58.470Z,99696.84
2023-04-27T18:08:25.918Z,99697.53
2023-04-27T18:10:52.922Z,99695.84
2023-04-27T18:13:21.342Z,99701.72
2023-04-27T18:15:48.139Z,99709.91
2023-04-27T18:18:15.540Z,99712.88
2023-04-27T18:20:42.505Z,99715.50
2023-04-27T18:23:10.040Z,99715.59
2023-04-27T18:25:36.957Z,99718.25
2023-04-27T18:28:05.886Z,99720.19
2023-04-27T18:30:34.434Z,99715.34
2023-04-27T18:33:01.431Z,99717.66
2023-04-27T18:35:28.644Z,99729.41
2023-04-27T18:37:56.118Z,99727.78
2023-04-27T18:40:23.925Z,99726.53
2023-04-27T18:42:50.889Z,99721.50
2023-04-27T18:45:17.999Z,99718.50
2023-04-27T18:47:46.343Z,99719.84
2023-04-27T18:50:13.418Z,99715.28
2023-04-27T18:52:41.613Z,99708.69
2023-04-27T18:55:09.936Z,99706.81
2023-04-27T18:57:37.304Z,99704.66
2023-04-27T19:00:05.973Z,99719.84
2023-04-27T19:02:33.201Z,99710.56
2023-04-27T19:07:34.630Z,99722.19
2023-04-27T19:10:01.630Z,99722.00
2023-04-27T19:12:28.872Z,99720.22
2023-04-27T19:14:55.851Z,99729.13
2023-04-27T19:17:31.356Z,99733.38
2023-04-27T19:19:58.536Z,99737.88
2023-04-27T19:22:27.040Z,99735.31
2023-04-27T19:24:54.059Z,99729.09
2023-04-27T19:27:21.613Z,99734.91
2023-04-27T19:29:52.345Z,99724.28
2023-04-27T19:32:19.924Z,99719.56
2023-04-27T19:34:47.148Z,99717.78
2023-04-27T19:37:14.659Z,99709.31
2023-04-27T19:39:43.097Z,99707.16
2023-04-27T19:42:10.285Z,99720.59
2023-04-27T19:44:37.280Z,99717.16
2023-04-27T19:47:04.650Z,99716.22
2023-04-27T19:49:32.055Z,99710.56
2023-04-27T19:51:59.474Z,99708.78
2023-04-27T19:54:26.828Z,99710.28
2023-04-27T19:56:56.047Z,99709.81
2023-04-27T19:59:23.024Z,99701.81
2023-04-27T20:01:50.160Z,99707.94
2023-04-27T20:04:17.382Z,99712.44
2023-04-27T20:06:44.902Z,99720.25
2023-04-27T20:09:12.286Z,99719.66
2023-04-27T20:11:40.696Z,99718.13
2023-04-27T20:14:08.941Z,99717.16
2023-04-27T20:16:35.938Z,99716.22
2023-04-27T20:19:02.918Z,99717.75
2023-04-27T20:21:30.215Z,99717.41
2023-04-27T20:23:58.456Z,99717.78
2023-04-27T20:26:25.546Z,99714.34
2023-04-27T20:28:52.724Z,99702.78
2023-04-27T20:31:21.365Z,99697.91
2023-04-27T20:33:48.272Z,99698.16
2023-04-27T20:36:17.729Z,99699.81
2023-04-27T20:38:46.196Z,99703.81
2023-04-27T20:41:13.248Z,99704.91
2023-04-27T20:43:40.715Z,99694.13
2023-04-27T20:46:08.044Z,99692.50
2023-04-27T20:48:36.403Z,99707.47
2023-04-27T20:51:03.834Z,99695.22
2023-04-27T20:53:30.980Z,99696.63
2023-04-27T20:55:58.056Z,99697.22
2023-04-27T20:58:25.364Z,99689.53
2023-04-27T21:00:52.411Z,99681.63
2023-04-27T21:03:19.641Z,99687.63
2023-04-27T21:05:48.138Z,99687.06
2023-04-27T21:08:15.838Z,99687.31
2023-04-27T21:10:42.944Z,99689.41
2023-04-27T21:13:10.013Z,99686.13
2023-04-27T21:15:37.923Z,99688.47
2023-04-27T21:18:06.420Z,99679.72
2023-04-27T21:20:34.909Z,99684.81
2023-04-27T21:23:03.245Z,99676.31
2023-04-27T21:25:30.328Z,99685.16
2023-04-27T21:27:57.488Z,99682.06
2023-04-27T21:30:24.613Z,99683.59
2023-04-27T21:32:51.565Z,99679.94
2023-04-27T21:35:18.732Z,99673.06
2023-04-27T21:37:45.797Z,99669.03
2023-04-27T21:40:14.224Z,99661.03
2023-04-27T21:42:41.201Z,99659.28
2023-04-27T21:45:09.918Z,99651.38
2023-04-27T21:47:36.981Z,99662.00
2023-04-27T21:50:05.654Z,99654.34
2023-04-27T21:52:32.916Z,99663.66
2023-04-27T21:54:59.967Z,99648.09
2023-04-27T21:57:28.470Z,99655.28
2023-04-27T21:59:55.547Z,99654.81
2023-04-27T22:02:23.126Z,99652.03
2023-04-27T22:04:50.641Z,99649.47
2023-04-27T22:07:17.957Z,99637.44
2023-04-27T22:09:45.483Z,99641.81
2023-04-27T22:12:12.367Z,99635.34
2023-04-27T22:14:40.773Z,99639.13
2023-04-27T22:17:07.590Z,99632.63
2023-04-27T22:19:34.552Z,99629.00
2023-04-27T22:22:01.413Z,99629.59
2023-04-27T22:24:28.362Z,99630.81
2023-04-27T22:26:55.403Z,99639.97
2023-04-27T22:29:22.311Z,99637.72
2023-04-27T22:31:51.264Z,99646.22
2023-04-27T22:34:18.375Z,99639.50
2023-04-27T22:36:45.503Z,99643.44
2023-04-27T22:39:12.682Z,99630.94
2023-04-27T22:41:39.618Z,99634.28
2023-04-27T22:44:06.658Z,99628.41
2023-04-27T22:46:33.672Z,99632.47
2023-04-27T22:49:02.434Z,99633.38
2023-04-27T22:51:29.384Z,99641.97
2023-04-27T22:53:56.203Z,99637.69
2023-04-27T22:56:23.611Z,99632.13
2023-04-27T22:58:50.542Z,99632.63
2023-04-27T23:01:18.022Z,99638.63
2023-04-27T23:03:52.691Z,99627.56
2023-04-27T23:06:21.273Z,99636.94
2023-04-27T23:08:51.077Z,99637.97
2023-04-27T23:11:18.316Z,99637.84
2023-04-27T23:13:47.784Z,99641.81
2023-04-27T23:16:16.410Z,99639.31
2023-04-27T23:18:43.280Z,99640.75
2023-04-27T23:21:10.104Z,99645.28
2023-04-27T23:23:38.820Z,99641.09
2023-04-27T23:26:12.536Z,99637.22
2023-04-27T23:28:39.641Z,99621.97
2023-04-27T23:31:06.999Z,99626.13
2023-04-27T23:33:34.303Z,99623.88
2023-04-27T23:36:01.469Z,99618.56
2023-04-27T23:38:28.809Z,99613.56
2023-04-27T23:40:57.077Z,99612.94
2023-04-27T23:43:24.040Z,99614.19
2023-04-27T23:45:52.415Z,99627.41
2023-04-27T23:48:19.835Z,99617.41
2023-04-27T23:50:46.819Z,99615.22
2023-04-27T23:53:14.056Z,99604.75
2023-04-27T23:55:40.899Z,99602.38
2023-04-27T23:58:09.136Z,99596.38
